sensor_id;sensor_type;location;lat;lon;timestamp;P1;durP1;ratioP1;P2;durP2;ratioP2
63581;SDS011;49727;51.078;17.066;2022-10-26T00:09:24;20.10;;;10.90;;
63581;SDS011;49727;51.078;17.066;2022-10-26T00:24:24;19.00;;;12.95;;
63581;SDS011;49727;51.078;17.066;2022-10-26T00:39:25;14.43;;;10.77;;
63581;SDS011;49727;51.078;17.066;2022-10-26T00:54:25;17.85;;;11.18;;
63581;SDS011;49727;51.078;17.066;2022-10-26T01:09:25;14.02;;;9.85;;
63581;SDS011;49727;51.078;17.066;2022-10-26T01:39:57;17.60;;;10.77;;
63581;SDS011;49727;51.078;17.066;2022-10-26T01:55:05;16.87;;;10.47;;
63581;SDS011;49727;51.078;17.066;2022-10-26T02:10:27;20.33;;;10.57;;
63581;SDS011;49727;51.078;17.066;2022-10-26T02:40:50;19.83;;;9.73;;
63581;SDS011;49727;51.078;17.066;2022-10-26T02:55:51;18.40;;;9.33;;
63581;SDS011;49727;51.078;17.066;2022-10-26T03:10:51;17.08;;;9.25;;
63581;SDS011;49727;51.078;17.066;2022-10-26T03:25:55;12.35;;;8.18;;
63581;SDS011;49727;51.078;17.066;2022-10-26T03:40:56;14.60;;;9.60;;
63581;SDS011;49727;51.078;17.066;2022-10-26T03:55:56;16.20;;;8.63;;
63581;SDS011;49727;51.078;17.066;2022-10-26T04:10:56;27.58;;;12.02;;
63581;SDS011;49727;51.078;17.066;2022-10-26T04:25:57;14.90;;;7.80;;
63581;SDS011;49727;51.078;17.066;2022-10-26T04:40:57;13.63;;;8.68;;
63581;SDS011;49727;51.078;17.066;2022-10-26T04:55:59;23.10;;;9.50;;
63581;SDS011;49727;51.078;17.066;2022-10-26T05:11:00;23.70;;;13.27;;
63581;SDS011;49727;51.078;17.066;2022-10-26T05:26:00;35.75;;;22.25;;
63581;SDS011;49727;51.078;17.066;2022-10-26T05:41:00;22.30;;;13.55;;
63581;SDS011;49727;51.078;17.066;2022-10-26T05:56:01;27.20;;;13.95;;
63581;SDS011;49727;51.078;17.066;2022-10-26T06:11:01;21.30;;;12.65;;
63581;SDS011;49727;51.078;17.066;2022-10-26T06:26:05;36.17;;;18.08;;
63581;SDS011;49727;51.078;17.066;2022-10-26T06:41:23;32.80;;;14.50;;
63581;SDS011;49727;51.078;17.066;2022-10-26T06:56:25;16.73;;;9.53;;
63581;SDS011;49727;51.078;17.066;2022-10-26T07:11:25;17.10;;;12.10;;
63581;SDS011;49727;51.078;17.066;2022-10-26T07:26:26;27.90;;;15.60;;
63581;SDS011;49727;51.078;17.066;2022-10-26T07:41:26;11.55;;;8.35;;
63581;SDS011;49727;51.078;17.066;2022-10-26T07:56:26;12.35;;;6.47;;
63581;SDS011;49727;51.078;17.066;2022-10-26T08:11:27;10.80;;;6.53;;
63581;SDS011;49727;51.078;17.066;2022-10-26T08:26:28;8.45;;;5.10;;
63581;SDS011;49727;51.078;17.066;2022-10-26T08:41:36;8.57;;;4.70;;
63581;SDS011;49727;51.078;17.066;2022-10-26T08:56:45;5.27;;;3.53;;
63581;SDS011;49727;51.078;17.066;2022-10-26T09:42:23;4.00;;;3.25;;
63581;SDS011;49727;51.078;17.066;2022-10-26T09:57:31;10.77;;;5.57;;
63581;SDS011;49727;51.078;17.066;2022-10-26T10:12:31;6.65;;;3.28;;
63581;SDS011;49727;51.078;17.066;2022-10-26T10:27:32;4.83;;;2.73;;
63581;SDS011;49727;51.078;17.066;2022-10-26T10:42:33;8.10;;;2.70;;
63581;SDS011;49727;51.078;17.066;2022-10-26T11:12:58;5.73;;;2.03;;
63581;SDS011;49727;51.078;17.066;2022-10-26T11:28:45;3.80;;;1.43;;
63581;SDS011;49727;51.078;17.066;2022-10-26T11:44:04;3.83;;;1.57;;
63581;SDS011;49727;51.078;17.066;2022-10-26T11:59:19;8.50;;;1.53;;
63581;SDS011;49727;51.078;17.066;2022-10-26T12:29:45;3.27;;;1.33;;
63581;SDS011;49727;51.078;17.066;2022-10-26T13:15:01;2.90;;;1.23;;
63581;SDS011;49727;51.078;17.066;2022-10-26T13:30:21;6.03;;;1.30;;
63581;SDS011;49727;51.078;17.066;2022-10-26T13:45:36;5.37;;;1.47;;
63581;SDS011;49727;51.078;17.066;2022-10-26T14:01:00;4.30;;;1.00;;
63581;SDS011;49727;51.078;17.066;2022-10-26T14:16:00;2.43;;;0.90;;
63581;SDS011;49727;51.078;17.066;2022-10-26T14:31:11;3.58;;;1.15;;
63581;SDS011;49727;51.078;17.066;2022-10-26T14:46:16;4.30;;;1.80;;
63581;SDS011;49727;51.078;17.066;2022-10-26T15:16:25;11.20;;;4.60;;
63581;SDS011;49727;51.078;17.066;2022-10-26T15:31:29;24.47;;;8.00;;
63581;SDS011;49727;51.078;17.066;2022-10-26T15:46:31;17.77;;;3.80;;
63581;SDS011;49727;51.078;17.066;2022-10-26T16:01:33;24.80;;;5.57;;
63581;SDS011;49727;51.078;17.066;2022-10-26T16:16:34;7.03;;;2.95;;
63581;SDS011;49727;51.078;17.066;2022-10-26T16:31:34;9.90;;;5.15;;
63581;SDS011;49727;51.078;17.066;2022-10-26T16:46:34;22.77;;;11.43;;
63581;SDS011;49727;51.078;17.066;2022-10-26T17:01:35;14.90;;;8.95;;
63581;SDS011;49727;51.078;17.066;2022-10-26T17:16:35;18.55;;;9.05;;
63581;SDS011;49727;51.078;17.066;2022-10-26T17:31:35;18.60;;;9.60;;
63581;SDS011;49727;51.078;17.066;2022-10-26T17:46:36;27.52;;;13.07;;
63581;SDS011;49727;51.078;17.066;2022-10-26T18:01:36;34.97;;;15.25;;
63581;SDS011;49727;51.078;17.066;2022-10-26T18:16:36;35.00;;;16.20;;
63581;SDS011;49727;51.078;17.066;2022-10-26T18:31:37;31.50;;;14.63;;
63581;SDS011;49727;51.078;17.066;2022-10-26T18:46:38;33.67;;;15.90;;
63581;SDS011;49727;51.078;17.066;2022-10-26T19:01:39;26.73;;;14.07;;
63581;SDS011;49727;51.078;17.066;2022-10-26T19:16:40;32.87;;;13.87;;
63581;SDS011;49727;51.078;17.066;2022-10-26T19:31:41;30.00;;;14.13;;
63581;SDS011;49727;51.078;17.066;2022-10-26T19:46:43;28.77;;;14.90;;
63581;SDS011;49727;51.078;17.066;2022-10-26T20:01:43;28.85;;;15.85;;
63581;SDS011;49727;51.078;17.066;2022-10-26T20:16:44;26.10;;;13.55;;
63581;SDS011;49727;51.078;17.066;2022-10-26T20:31:44;28.30;;;13.90;;
63581;SDS011;49727;51.078;17.066;2022-10-26T20:46:44;27.52;;;13.00;;
63581;SDS011;49727;51.078;17.066;2022-10-26T21:01:45;27.55;;;13.02;;
63581;SDS011;49727;51.078;17.066;2022-10-26T21:16:45;21.27;;;13.75;;
63581;SDS011;49727;51.078;17.066;2022-10-26T21:31:46;24.05;;;14.52;;
63581;SDS011;49727;51.078;17.066;2022-10-26T21:46:46;24.40;;;13.98;;
63581;SDS011;49727;51.078;17.066;2022-10-26T22:01:47;30.10;;;15.77;;
63581;SDS011;49727;51.078;17.066;2022-10-26T22:16:47;30.63;;;15.07;;
63581;SDS011;49727;51.078;17.066;2022-10-26T22:31:48;28.38;;;15.82;;
63581;SDS011;49727;51.078;17.066;2022-10-26T22:46:49;29.97;;;16.03;;
63581;SDS011;49727;51.078;17.066;2022-10-26T23:01:49;27.05;;;15.35;;
63581;SDS011;49727;51.078;17.066;2022-10-26T23:16:50;24.23;;;14.68;;
63581;SDS011;49727;51.078;17.066;2022-10-26T23:31:50;27.77;;;14.07;;
63581;SDS011;49727;51.078;17.066;2022-10-26T23:46:50;26.55;;;13.75;;
